Cone, Michigan
Current Conditions -  °F | °C
As of 6:53 PM on Wednesday 22 Oct 2014 (Local Time) from KARB Reporting Station
Clear Clear  
Wind Chill: 50°   Ceiling: Unl
Heat Index: 50°   Visibility: NA
Dew Point: 38°   Wind: 8mph
Humidity: 63%   Direction: 350°N
Pressure: 30.28"   Gusts: NA
Location:  42.0828°N, 83.683°W
Report Text: KARB 222253Z 35007KT CLR 10/03 A3028 RMK AO2 SLP258 T01000033 $
Loading
Personal Weather Stations






























Interactive Weather Map
Tropical Storm Tracking
New forecast layout! Learn more

10-Day Weather Forecast

Advertisements
Track Severe Weather on mobile